createdAt,value
2023-12-30T00:01:49.697Z,87.20
2023-12-30T00:06:48.577Z,86.27
2023-12-30T00:11:47.491Z,86.27
2023-12-30T00:16:46.689Z,86.27
2023-12-30T00:21:45.678Z,85.97
2023-12-30T00:26:44.554Z,85.14
2023-12-30T00:31:43.306Z,85.14
2023-12-30T00:36:42.172Z,85.49
2023-12-30T00:41:41.140Z,85.80
2023-12-30T00:46:40.126Z,85.49
2023-12-30T00:51:39.529Z,85.60
2023-12-30T00:56:37.922Z,85.70
2023-12-30T01:01:37.104Z,85.49
2023-12-30T01:06:35.975Z,85.43
2023-12-30T01:11:34.900Z,85.02
2023-12-30T01:16:33.829Z,85.02
2023-12-30T01:21:32.777Z,84.71
2023-12-30T01:26:31.730Z,84.71
2023-12-30T01:31:30.739Z,84.40
2023-12-30T01:36:29.646Z,84.40
2023-12-30T01:41:28.558Z,84.30
2023-12-30T01:46:27.724Z,84.20
2023-12-30T01:51:26.945Z,84.50
2023-12-30T01:56:25.663Z,84.50
2023-12-30T02:01:24.583Z,84.81
2023-12-30T02:06:23.287Z,84.91
2023-12-30T02:11:22.396Z,85.12
2023-12-30T02:16:21.304Z,85.74
2023-12-30T02:21:20.199Z,86.66
2023-12-30T02:26:19.224Z,87.69
2023-12-30T02:31:18.181Z,88.10
2023-12-30T02:36:17.009Z,88.66
2023-12-30T02:41:16.051Z,88.35
2023-12-30T02:46:14.949Z,88.45
2023-12-30T02:51:13.886Z,89.01
2023-12-30T02:56:12.940Z,89.31
2023-12-30T03:01:11.891Z,89.42
2023-12-30T03:06:10.799Z,89.31
2023-12-30T03:11:09.742Z,89.42
2023-12-30T03:16:08.627Z,89.11
2023-12-30T03:21:07.612Z,89.31
2023-12-30T03:26:06.698Z,88.08
2023-12-30T03:31:05.717Z,88.49
2023-12-30T03:36:04.584Z,88.29
2023-12-30T03:41:03.357Z,87.26
2023-12-30T03:46:02.361Z,86.79
2023-12-30T03:51:01.343Z,86.88
2023-12-30T03:56:00.184Z,85.96
2023-12-30T04:00:59.204Z,85.65
2023-12-30T04:05:58.080Z,85.03
2023-12-30T04:10:57.035Z,84.93
2023-12-30T04:15:56.033Z,85.03
2023-12-30T04:20:55.032Z,84.83
2023-12-30T04:25:53.867Z,84.93
2023-12-30T04:30:53.048Z,84.93
2023-12-30T04:35:51.890Z,84.35
2023-12-30T04:40:50.787Z,84.35
2023-12-30T04:45:49.669Z,84.45
2023-12-30T04:50:48.668Z,84.25
2023-12-30T04:55:47.627Z,84.56
2023-12-30T05:00:46.606Z,84.25
2023-12-30T05:05:45.606Z,84.14
2023-12-30T05:10:44.509Z,84.25
2023-12-30T05:15:43.433Z,84.25
2023-12-30T05:20:42.269Z,84.29
2023-12-30T05:25:41.266Z,83.98
2023-12-30T05:30:40.319Z,83.87
2023-12-30T05:35:39.215Z,83.77
2023-12-30T05:40:38.249Z,83.98
2023-12-30T05:45:37.252Z,84.08
2023-12-30T05:50:36.003Z,84.39
2023-12-30T05:55:34.979Z,83.87
2023-12-30T06:00:33.973Z,84.08
2023-12-30T06:05:32.851Z,83.56
2023-12-30T06:10:31.851Z,83.77
2023-12-30T06:15:30.779Z,83.87
2023-12-30T06:20:29.668Z,84.12
2023-12-30T06:25:28.652Z,83.71
2023-12-30T06:30:27.513Z,83.71
2023-12-30T06:35:26.382Z,83.40
2023-12-30T06:40:25.501Z,83.61
2023-12-30T06:45:24.492Z,83.71
2023-12-30T06:50:23.349Z,83.64
2023-12-30T06:55:28.540Z,83.54
2023-12-30T07:00:21.320Z,83.64
2023-12-30T07:05:20.291Z,83.64
2023-12-30T07:10:19.215Z,83.64
2023-12-30T07:15:18.160Z,83.75
2023-12-30T07:20:17.061Z,83.75
2023-12-30T07:25:16.079Z,83.95
2023-12-30T07:30:15.137Z,83.75
2023-12-30T07:35:13.896Z,83.75
2023-12-30T07:40:12.900Z,83.99
2023-12-30T07:45:11.828Z,83.99
2023-12-30T07:50:10.860Z,83.89
2023-12-30T07:55:09.736Z,83.58
2023-12-30T08:00:08.690Z,83.58
2023-12-30T08:05:07.712Z,83.44
2023-12-30T08:10:06.693Z,83.54
2023-12-30T08:15:05.659Z,83.44
2023-12-30T08:20:04.638Z,83.54
2023-12-30T08:25:03.508Z,83.89
2023-12-30T08:30:02.317Z,84.09
2023-12-30T08:35:01.347Z,84.06
2023-12-30T08:40:00.631Z,84.06
2023-12-30T08:44:59.607Z,83.95
2023-12-30T08:49:58.143Z,83.95
2023-12-30T08:54:57.309Z,83.95
2023-12-30T08:59:56.080Z,83.95
2023-12-30T09:04:55.039Z,83.91
2023-12-30T09:09:53.973Z,83.91
2023-12-30T09:14:52.889Z,83.71
2023-12-30T09:19:51.967Z,83.61
2023-12-30T09:24:50.757Z,83.19
2023-12-30T09:29:49.705Z,83.50
2023-12-30T09:34:48.888Z,83.50
2023-12-30T09:39:47.657Z,82.98
2023-12-30T09:44:46.536Z,82.68
2023-12-30T09:49:45.580Z,82.89
2023-12-30T09:54:48.934Z,82.98
2023-12-30T09:59:43.278Z,82.37
2023-12-30T10:04:42.496Z,82.54
2023-12-30T10:09:41.265Z,82.43
2023-12-30T10:14:40.232Z,82.54
2023-12-30T10:19:39.309Z,82.23
2023-12-30T10:24:38.137Z,82.43
2023-12-30T10:29:46.475Z,81.92
2023-12-30T10:34:36.078Z,81.92
2023-12-30T10:39:35.089Z,82.02
2023-12-30T10:44:33.838Z,83.05
2023-12-30T10:49:32.901Z,82.95
2023-12-30T10:54:31.826Z,82.95
2023-12-30T10:59:30.931Z,83.47
2023-12-30T11:04:29.816Z,83.56
2023-12-30T11:09:28.785Z,83.87
2023-12-30T11:14:28.240Z,84.19
2023-12-30T11:19:26.653Z,84.39
2023-12-30T11:24:25.426Z,84.70
2023-12-30T11:29:24.448Z,84.91
2023-12-30T11:34:23.401Z,84.80
2023-12-30T11:39:22.351Z,84.91
2023-12-30T11:44:21.260Z,84.66
2023-12-30T11:49:20.373Z,84.14
2023-12-30T11:54:19.272Z,83.63
2023-12-30T11:59:18.171Z,82.60
2023-12-30T12:04:17.166Z,82.29
2023-12-30T12:09:16.087Z,80.95
2023-12-30T12:14:14.975Z,80.75
2023-12-30T12:19:13.962Z,80.23
2023-12-30T12:24:12.808Z,80.33
2023-12-30T12:29:11.735Z,80.33
2023-12-30T12:34:10.792Z,80.54
2023-12-30T12:39:11.150Z,80.51
2023-12-30T12:44:08.537Z,80.30
2023-12-30T12:49:08.130Z,80.19
2023-12-30T12:54:06.510Z,79.47
2023-12-30T12:59:05.417Z,79.27
2023-12-30T13:04:04.648Z,78.86
2023-12-30T13:09:03.393Z,79.16
2023-12-30T13:14:02.440Z,78.34
2023-12-30T13:19:01.394Z,78.34
2023-12-30T13:24:00.335Z,78.55
2023-12-30T13:28:59.205Z,78.14
2023-12-30T13:33:58.209Z,77.72
2023-12-30T13:38:57.052Z,77.83
2023-12-30T13:43:56.093Z,77.93
2023-12-30T13:48:55.147Z,77.93
2023-12-30T13:53:53.891Z,77.51
2023-12-30T13:58:52.972Z,77.51
2023-12-30T14:03:51.744Z,77.51
2023-12-30T14:08:50.854Z,77.93
2023-12-30T14:13:49.775Z,78.44
2023-12-30T14:18:48.772Z,79.06
2023-12-30T14:23:47.543Z,78.96
2023-12-30T14:28:46.561Z,79.47
2023-12-30T14:33:45.544Z,79.47
2023-12-30T14:38:44.357Z,79.16
2023-12-30T14:43:43.300Z,78.79
2023-12-30T14:48:42.275Z,79.30
2023-12-30T14:53:41.147Z,78.89
2023-12-30T14:58:40.290Z,79.30
2023-12-30T15:03:39.242Z,78.79
2023-12-30T15:08:38.185Z,78.69
2023-12-30T15:13:37.196Z,78.69
2023-12-30T15:18:36.052Z,78.69
2023-12-30T15:23:34.951Z,78.79
2023-12-30T15:28:33.938Z,79.20
2023-12-30T15:33:33.130Z,78.69
2023-12-30T15:38:32.092Z,78.93
2023-12-30T15:43:30.933Z,79.14
2023-12-30T15:48:30.112Z,79.44
2023-12-30T15:53:28.542Z,79.65
2023-12-30T15:58:27.564Z,79.86
2023-12-30T16:03:26.460Z,79.55
2023-12-30T16:08:25.479Z,79.44
2023-12-30T16:13:24.690Z,79.34
2023-12-30T16:18:23.426Z,79.24
2023-12-30T16:23:22.354Z,79.44
2023-12-30T16:28:21.322Z,79.65
2023-12-30T16:33:20.310Z,79.58
2023-12-30T16:38:19.223Z,78.97
2023-12-30T16:43:18.184Z,79.07
2023-12-30T16:48:17.141Z,79.48
2023-12-30T16:53:16.070Z,79.69
2023-12-30T16:58:15.002Z,80.10
2023-12-30T17:03:13.979Z,80.20
2023-12-30T17:08:12.869Z,80.34
2023-12-30T17:13:11.904Z,80.65
2023-12-30T17:18:10.863Z,80.65
2023-12-30T17:23:09.787Z,80.65
2023-12-30T17:28:08.591Z,80.34
2023-12-30T17:33:08.743Z,80.24
2023-12-30T17:38:06.596Z,80.07
2023-12-30T17:43:05.939Z,80.38
2023-12-30T17:48:04.513Z,80.69
2023-12-30T17:53:03.777Z,80.90
2023-12-30T17:58:02.337Z,81.04
2023-12-30T18:03:01.678Z,81.24
2023-12-30T18:08:00.321Z,81.49
2023-12-30T18:12:59.211Z,82.21
2023-12-30T18:17:58.288Z,82.45
2023-12-30T18:22:57.079Z,83.49
2023-12-30T18:27:55.964Z,83.97
2023-12-30T18:32:55.026Z,83.97
2023-12-30T18:37:53.934Z,83.97
2023-12-30T18:42:52.904Z,83.39
2023-12-30T18:47:51.851Z,84.31
2023-12-30T18:52:50.800Z,84.73
2023-12-30T18:57:49.620Z,84.69
2023-12-30T19:02:48.551Z,84.79
2023-12-30T19:07:47.740Z,84.89
2023-12-30T19:12:46.584Z,85.10
2023-12-30T19:17:45.566Z,85.31
2023-12-30T19:22:44.507Z,85.83
2023-12-30T19:27:43.523Z,86.24
2023-12-30T19:32:42.386Z,86.44
2023-12-30T19:37:41.385Z,86.55
2023-12-30T19:42:40.348Z,86.51
2023-12-30T19:47:39.287Z,86.51
2023-12-30T19:52:38.245Z,86.71
2023-12-30T19:57:37.130Z,86.61
2023-12-30T20:02:36.033Z,86.71
2023-12-30T20:07:35.048Z,86.92
2023-12-30T20:12:33.900Z,86.92
2023-12-30T20:17:33.047Z,87.13
2023-12-30T20:22:32.038Z,87.23
2023-12-30T20:27:31.045Z,87.29
2023-12-30T20:32:29.739Z,87.40
2023-12-30T20:37:28.862Z,87.29
2023-12-30T20:42:27.815Z,87.50
2023-12-30T20:47:26.746Z,87.40
2023-12-30T20:52:25.460Z,87.29
2023-12-30T20:57:24.448Z,87.29
2023-12-30T21:02:23.484Z,87.40
2023-12-30T21:07:22.450Z,87.81
2023-12-30T21:12:21.267Z,88.02
2023-12-30T21:17:20.275Z,87.81
2023-12-30T21:22:19.249Z,87.60
2023-12-30T21:27:18.209Z,87.71
2023-12-30T21:32:17.084Z,88.32
2023-12-30T21:37:16.048Z,88.22
2023-12-30T21:42:14.890Z,88.43
2023-12-30T21:47:13.890Z,89.05
2023-12-30T21:52:12.788Z,89.36
2023-12-30T21:57:11.867Z,89.56
2023-12-30T22:02:10.756Z,89.36
2023-12-30T22:07:10.938Z,89.46
2023-12-30T22:12:08.714Z,89.56
2023-12-30T22:17:10.106Z,89.61
2023-12-30T22:22:06.646Z,89.50
2023-12-30T22:27:05.520Z,89.29
2023-12-30T22:32:04.508Z,89.09
2023-12-30T22:37:03.507Z,88.78
2023-12-30T22:42:02.964Z,88.92
2023-12-30T22:47:01.320Z,88.61
2023-12-30T22:52:00.354Z,88.61
2023-12-30T22:56:59.636Z,88.51
2023-12-30T23:01:58.193Z,89.03
2023-12-30T23:06:57.070Z,89.38
2023-12-30T23:11:56.034Z,89.89
2023-12-30T23:16:54.960Z,90.00
2023-12-30T23:21:54.059Z,90.00
2023-12-30T23:26:53.074Z,89.94
2023-12-30T23:31:51.970Z,89.52
2023-12-30T23:36:50.687Z,89.11
2023-12-30T23:41:49.687Z,88.70
2023-12-30T23:46:48.614Z,88.70
2023-12-30T23:51:47.508Z,88.28
2023-12-30T23:56:46.481Z,88.59
